KBTL/BTL METAR and TAF weather

Enter ICAO airport designator
Station Type Date Time Source
KBTL METAR 2021/03/04 21:53 UTC NOAA

KBTL 042153Z 03008KT 10SM CLR 01/M11 A3028 RMK AO2 SLP266 T00111106


Station Type Date Time Source
KBTL Decoded METAR 2021/03/04 21:53 UTC NOAA

W.K.KELLOGG REGIONAL AIRPORT, MI, United States (KBTL) 42-18N 085-15W 290M
Mar 04, 2021 - 04:53 PM EST / 2021.03.04 2153 UTC
Wind: from the NNE (030 degrees) at 9 MPH (8 KT):0
Visibility: 10 mile(s):0
Sky conditions: clear
Temperature: 34.0 F (1.1 C)
Windchill: 26 F (-3 C):1
Dew Point: 12.9 F (-10.6 C)
Relative Humidity: 41%
Pressure (altimeter): 30.28 in. Hg (1025 hPa)
ob: KBTL 042153Z 03008KT 10SM CLR 01/M11 A3028 RMK AO2 SLP266 T00111106
cycle: 22

Station Type Date Time Source
KBTL TAF 2021/03/04 18:22 UTC NOAA

TAF KBTL 041720Z 0418/0518 01009KT P6SM BKN035
FM042100 33006KT P6SM SKC

Example: see airport list